Time;durP1;ratioP1;P1;durP2;ratioP2;P2;SDS_P1;SDS_P2;PMS_P1;PMS_P2;Temp;Humidity;BMP_temperature;BMP_pressure;BME280_temperature;BME280_humidity;BME280_pressure;Samples;Min_cycle;Max_cycle;Signal;HPM_P1;HPM_P2
2022/10/06 00:00:52;;;;;;;1.60;1.30;;;14.80;99.90;;;;;;5076696;28;20378;-72
2022/10/06 00:03:21;;;;;;;1.60;1.40;;;14.80;99.90;;;;;;5076346;28;20201;-72
2022/10/06 00:05:48;;;;;;;4.50;1.60;;;14.80;99.90;;;;;;5075408;28;20593;-68
2022/10/06 00:08:14;;;;;;;1.43;1.20;;;14.80;99.90;;;;;;5076567;28;20396;-69
2022/10/06 00:10:40;;;;;;;2.17;1.80;;;14.80;99.90;;;;;;5075337;28;20427;-73
2022/10/06 00:13:06;;;;;;;1.20;1.00;;;14.80;99.90;;;;;;5075377;28;20185;-72
2022/10/06 00:15:32;;;;;;;1.50;1.20;;;14.70;99.90;;;;;;5075748;28;20621;-72
2022/10/06 00:17:58;;;;;;;1.20;0.93;;;14.70;99.90;;;;;;5076277;28;20428;-71
2022/10/06 00:20:25;;;;;;;2.50;1.40;;;14.80;99.90;;;;;;5076185;28;20508;-71
2022/10/06 00:22:51;;;;;;;4.67;1.10;;;14.80;99.90;;;;;;5075714;28;20412;-71
2022/10/06 00:25:19;;;;;;;2.83;1.07;;;14.80;99.90;;;;;;5075284;28;20391;-69
2022/10/06 00:27:47;;;;;;;2.00;1.07;;;14.80;99.90;;;;;;5076041;28;20622;-68
2022/10/06 00:30:15;;;;;;;2.60;1.43;;;14.80;99.90;;;;;;5076164;28;20896;-71
2022/10/06 00:32:50;;;;;;;1.33;1.23;;;14.80;99.90;;;;;;5074155;28;20436;-68
2022/10/06 00:35:16;;;;;;;6.80;1.70;;;14.80;99.90;;;;;;5075202;28;20423;-71
2022/10/06 00:37:41;;;;;;;3.23;1.00;;;14.80;99.90;;;;;;5075969;28;20379;-71
2022/10/06 00:40:08;;;;;;;4.33;0.97;;;14.70;99.90;;;;;;5075783;28;20251;-69
2022/10/06 00:42:51;;;;;;;1.20;0.90;;;14.70;99.90;;;;;;5075962;28;20162;-68
2022/10/06 00:45:24;;;;;;;2.10;1.17;;;14.60;99.90;;;;;;5090672;28;20435;-68
2022/10/06 00:47:50;;;;;;;3.23;1.50;;;14.50;99.90;;;;;;5075794;28;20396;-71
2022/10/06 00:50:16;;;;;;;2.33;1.13;;;14.40;99.90;;;;;;5075678;28;20389;-67
2022/10/06 00:52:42;;;;;;;1.93;1.10;;;14.30;99.90;;;;;;5074650;28;20403;-68
2022/10/06 00:55:08;;;;;;;3.27;1.30;;;14.30;99.90;;;;;;5075022;28;20236;-68
2022/10/06 00:57:38;;;;;;;2.50;1.03;;;14.40;99.90;;;;;;5075372;28;20446;-69
2022/10/06 01:00:06;;;;;;;3.60;1.63;;;14.30;99.90;;;;;;5075261;28;20225;-71
2022/10/06 01:02:41;;;;;;;2.83;1.80;;;14.30;99.90;;;;;;5074128;28;20848;-71
2022/10/06 01:05:10;;;;;;;2.50;1.23;;;14.30;99.90;;;;;;5074710;28;20951;-68
2022/10/06 01:07:36;;;;;;;5.40;2.00;;;14.20;99.90;;;;;;5074381;28;20411;-68
2022/10/06 01:10:01;;;;;;;9.43;1.93;;;14.20;99.90;;;;;;5075317;28;20940;-71
2022/10/06 01:12:30;;;;;;;9.17;2.53;;;14.20;99.90;;;;;;5075437;28;20193;-71
2022/10/06 01:14:56;;;;;;;10.53;1.83;;;14.10;99.90;;;;;;5074147;28;20234;-71
2022/10/06 01:17:31;;;;;;;6.97;2.10;;;14.10;99.90;;;;;;5075139;28;20376;-70
2022/10/06 01:20:07;;;;;;;3.70;1.87;;;14.10;99.90;;;;;;5075052;28;20386;-68
2022/10/06 01:22:45;;;;;;;7.07;1.77;;;14.10;99.90;;;;;;5075190;28;20375;-68
2022/10/06 01:25:16;;;;;;;5.90;1.70;;;14.10;99.90;;;;;;5072979;28;20489;-72
2022/10/06 01:27:52;;;;;;;7.20;2.43;;;14.10;99.90;;;;;;5074762;28;20415;-71
2022/10/06 01:30:31;;;;;;;1.93;1.27;;;14.10;99.90;;;;;;5074852;28;20374;-71
2022/10/06 01:32:57;;;;;;;10.50;4.07;;;14.00;99.90;;;;;;5074573;28;20371;-70
2022/10/06 01:35:23;;;;;;;7.40;1.60;;;14.00;99.90;;;;;;5089650;28;20428;-67
2022/10/06 01:37:48;;;;;;;7.47;2.10;;;14.00;99.90;;;;;;5074838;28;20417;-70
2022/10/06 01:40:14;;;;;;;8.20;1.97;;;14.00;99.90;;;;;;5074654;28;20166;-68
2022/10/06 01:42:40;;;;;;;8.17;2.17;;;14.00;99.90;;;;;;5073979;28;20166;-71
2022/10/06 01:45:06;;;;;;;10.10;2.47;;;14.00;99.90;;;;;;5074023;28;20186;-67
2022/10/06 01:47:33;;;;;;;6.50;2.70;;;14.00;99.90;;;;;;5074626;28;20288;-68
2022/10/06 01:49:59;;;;;;;7.20;1.67;;;14.00;99.90;;;;;;5074087;28;20376;-72
2022/10/06 01:52:25;;;;;;;5.60;2.07;;;14.10;99.90;;;;;;5074482;28;20754;-69
2022/10/06 01:54:52;;;;;;;4.90;1.50;;;14.10;99.90;;;;;;5072370;28;20171;-68
2022/10/06 01:57:20;;;;;;;4.03;1.90;;;14.10;99.90;;;;;;5074387;28;20403;-74
2022/10/06 01:59:46;;;;;;;11.30;3.83;;;14.00;99.90;;;;;;5074399;28;20400;-71
2022/10/06 02:02:12;;;;;;;8.17;1.60;;;14.00;99.90;;;;;;5074150;28;20379;-69
2022/10/06 02:04:37;;;;;;;7.10;1.43;;;14.00;99.90;;;;;;5072049;28;20431;-68
2022/10/06 02:07:03;;;;;;;4.57;1.30;;;13.80;99.90;;;;;;5073855;28;20439;-70
2022/10/06 02:09:29;;;;;;;7.30;1.60;;;13.70;99.90;;;;;;5073993;28;20637;-69
2022/10/06 02:11:54;;;;;;;7.10;1.73;;;13.60;99.90;;;;;;5072838;28;20404;-73
2022/10/06 02:14:20;;;;;;;1.73;0.90;;;13.50;99.90;;;;;;5073283;28;20740;-72
2022/10/06 02:16:46;;;;;;;2.13;1.77;;;13.40;99.90;;;;;;5074092;28;20552;-71
2022/10/06 02:19:11;;;;;;;2.90;1.30;;;13.30;99.90;;;;;;5074152;28;20245;-70
2022/10/06 02:21:37;;;;;;;2.67;1.40;;;13.30;99.90;;;;;;5074010;28;20527;-69
2022/10/06 02:24:03;;;;;;;1.97;1.27;;;13.30;97.70;;;;;;5072733;28;20193;-69
2022/10/06 02:26:29;;;;;;;2.40;1.17;;;13.20;97.30;;;;;;5073640;28;20409;-70
2022/10/06 02:28:55;;;;;;;1.87;1.33;;;13.20;97.70;;;;;;5073970;28;20378;-72
2022/10/06 02:31:20;;;;;;;1.70;1.17;;;13.10;95.40;;;;;;5073851;28;20166;-74
2022/10/06 02:33:46;;;;;;;2.30;1.23;;;13.10;93.40;;;;;;5073226;28;20227;-70
2022/10/06 02:36:15;;;;;;;3.80;1.50;;;13.00;94.60;;;;;;5073608;28;20182;-70
2022/10/06 02:38:41;;;;;;;2.83;1.20;;;13.00;94.70;;;;;;5073546;28;20406;-68
2022/10/06 02:41:07;;;;;;;3.97;1.90;;;12.90;99.90;;;;;;5073227;28;20414;-69
2022/10/06 02:43:33;;;;;;;5.53;1.57;;;12.90;99.90;;;;;;5073372;28;20737;-73
2022/10/06 02:46:02;;;;;;;4.73;1.70;;;12.90;99.90;;;;;;5073067;28;20474;-72
2022/10/06 02:48:28;;;;;;;2.07;1.57;;;12.90;99.90;;;;;;5073684;28;20809;-68
2022/10/06 02:50:55;;;;;;;1.50;1.30;;;12.80;99.90;;;;;;5073564;28;20380;-73
2022/10/06 02:53:20;;;;;;;3.40;1.30;;;12.80;99.90;;;;;;5073660;28;20440;-73
2022/10/06 02:55:46;;;;;;;5.43;1.37;;;12.80;99.90;;;;;;5072729;28;20469;-71
2022/10/06 02:58:11;;;;;;;3.20;1.47;;;12.80;99.90;;;;;;5073275;28;20254;-70
2022/10/06 03:00:37;;;;;;;6.43;2.40;;;12.80;99.90;;;;;;5071914;28;20185;-71
2022/10/06 03:03:03;;;;;;;8.33;1.97;;;12.80;99.90;;;;;;5072962;28;20247;-70
2022/10/06 03:05:30;;;;;;;5.63;1.83;;;12.80;99.90;;;;;;5072477;28;20210;-71
2022/10/06 03:07:56;;;;;;;4.80;1.50;;;12.90;99.90;;;;;;5073426;28;20375;-69
2022/10/06 03:10:21;;;;;;;2.87;1.40;;;12.90;99.90;;;;;;5073462;28;20181;-72
2022/10/06 03:12:47;;;;;;;7.03;1.33;;;12.90;99.90;;;;;;5071994;28;20170;-71
2022/10/06 03:15:12;;;;;;;1.80;1.50;;;12.90;99.90;;;;;;5072087;28;20190;-69
2022/10/06 03:17:38;;;;;;;4.97;2.07;;;12.90;99.90;;;;;;5073194;28;20251;-71
2022/10/06 03:20:04;;;;;;;4.70;1.77;;;12.90;99.90;;;;;;5073282;28;20274;-72
2022/10/06 03:22:30;;;;;;;2.33;1.80;;;13.00;99.90;;;;;;5073213;28;20158;-71
2022/10/06 03:24:55;;;;;;;6.73;1.60;;;13.00;99.90;;;;;;5072285;28;20783;-69
2022/10/06 03:27:21;;;;;;;5.40;1.60;;;13.00;99.90;;;;;;5073201;28;20178;-71
2022/10/06 03:29:47;;;;;;;8.30;2.07;;;13.00;99.90;;;;;;5073251;28;20170;-70
2022/10/06 03:32:13;;;;;;;7.23;2.27;;;13.00;99.90;;;;;;5073107;28;20182;-69
2022/10/06 03:34:39;;;;;;;9.57;2.03;;;13.00;99.90;;;;;;5072105;28;20401;-71
2022/10/06 03:37:04;;;;;;;4.47;1.63;;;13.00;99.90;;;;;;5072746;28;20178;-71
2022/10/06 03:39:32;;;;;;;8.10;1.90;;;13.00;99.90;;;;;;5073195;28;20174;-72
2022/10/06 03:41:58;;;;;;;3.50;1.73;;;13.00;99.90;;;;;;5072967;28;20534;-71
2022/10/06 03:44:23;;;;;;;5.00;1.70;;;13.00;99.90;;;;;;5072376;28;20426;-69
2022/10/06 03:46:50;;;;;;;12.40;2.27;;;12.90;99.90;;;;;;5073134;28;20186;-69
2022/10/06 03:49:15;;;;;;;9.00;2.67;;;13.00;99.90;;;;;;5073031;28;20572;-69
2022/10/06 03:51:41;;;;;;;7.87;1.93;;;13.00;99.90;;;;;;5073387;28;20396;-72
2022/10/06 03:54:09;;;;;;;8.53;2.23;;;13.00;99.90;;;;;;5071856;28;20249;-68
2022/10/06 03:56:38;;;;;;;9.00;2.13;;;13.00;99.90;;;;;;5072852;28;20512;-72
2022/10/06 03:59:12;;;;;;;6.37;2.30;;;13.00;99.90;;;;;;5072843;28;20376;-69
2022/10/06 04:01:43;;;;;;;7.33;2.10;;;13.00;99.90;;;;;;5072762;28;20406;-68
2022/10/06 04:04:10;;;;;;;6.53;1.97;;;13.00;99.90;;;;;;5071767;28;20596;-68
2022/10/06 04:06:38;;;;;;;5.33;1.73;;;13.00;99.90;;;;;;5073873;28;20919;-69
2022/10/06 04:09:06;;;;;;;5.83;1.97;;;12.90;99.90;;;;;;5076455;28;20450;-68
2022/10/06 04:11:34;;;;;;;8.27;2.50;;;12.90;99.90;;;;;;5075826;28;20825;-71
2022/10/06 04:14:02;;;;;;;5.67;2.20;;;12.90;99.90;;;;;;5075616;28;20911;-68
2022/10/06 04:17:00;;;;;;;2.03;1.93;;;12.90;99.90;;;;;;5076180;28;20664;-68
2022/10/06 04:19:26;;;;;;;4.43;1.80;;;12.90;99.90;;;;;;5042488;28;20949;-68
2022/10/06 04:21:52;;;;;;;4.83;2.10;;;12.90;99.90;;;;;;5076206;28;20383;-71
2022/10/06 04:24:17;;;;;;;4.40;2.50;;;12.90;99.90;;;;;;5075465;28;20209;-71
2022/10/06 04:26:45;;;;;;;5.90;1.93;;;12.80;99.90;;;;;;5075938;28;20367;-71
2022/10/06 04:29:11;;;;;;;4.20;2.07;;;12.80;99.90;;;;;;5075865;28;20178;-69
2022/10/06 04:31:39;;;;;;;11.33;2.53;;;12.80;99.90;;;;;;5075362;28;20409;-71
2022/10/06 04:34:06;;;;;;;9.03;2.80;;;12.80;99.90;;;;;;5074037;28;20763;-68
2022/10/06 04:36:35;;;;;;;12.27;3.20;;;12.80;99.90;;;;;;5075893;28;20431;-69
2022/10/06 04:39:02;;;;;;;16.50;3.13;;;12.80;99.90;;;;;;5075841;28;20933;-71
2022/10/06 04:41:31;;;;;;;16.13;2.50;;;12.80;99.90;;;;;;5075673;28;20931;-71
2022/10/06 04:43:56;;;;;;;2.80;1.60;;;12.80;99.90;;;;;;5075095;28;20460;-69
2022/10/06 04:46:23;;;;;;;6.93;2.63;;;12.80;99.90;;;;;;5075523;28;20416;-72
2022/10/06 04:48:50;;;;;;;12.17;2.23;;;12.80;99.90;;;;;;5075519;28;20723;-68
2022/10/06 04:51:17;;;;;;;9.40;2.40;;;12.80;99.90;;;;;;5075948;28;20363;-71
2022/10/06 04:53:43;;;;;;;4.93;2.07;;;12.80;99.90;;;;;;5075034;28;20383;-71
2022/10/06 04:56:30;;;;;;;4.60;2.27;;;12.80;99.90;;;;;;5075417;28;20422;-69
2022/10/06 04:58:56;;;;;;;8.63;2.33;;;12.80;99.90;;;;;;5075669;28;20919;-69
2022/10/06 05:01:26;;;;;;;5.73;2.37;;;12.70;99.90;;;;;;5075466;28;20371;-73
2022/10/06 05:03:54;;;;;;;11.80;3.27;;;12.70;99.90;;;;;;5072953;28;20833;-71
2022/10/06 05:06:29;;;;;;;10.13;2.30;;;12.70;99.90;;;;;;5075329;28;20387;-71
2022/10/06 05:08:58;;;;;;;10.67;3.37;;;12.70;99.90;;;;;;5075554;28;20363;-71
2022/10/06 05:11:24;;;;;;;7.80;2.53;;;12.70;99.90;;;;;;5075360;28;20428;-71
2022/10/06 05:13:53;;;;;;;10.30;2.17;;;12.70;99.90;;;;;;5074539;28;20864;-69
2022/10/06 05:16:20;;;;;;;6.00;2.10;;;12.70;99.90;;;;;;5075222;28;20403;-68
2022/10/06 05:18:45;;;;;;;8.07;3.93;;;12.60;99.90;;;;;;5075028;28;20853;-68
2022/10/06 05:21:16;;;;;;;15.10;3.37;;;12.60;99.90;;;;;;5074788;28;20381;-71
2022/10/06 05:23:43;;;;;;;13.83;2.67;;;12.60;99.90;;;;;;5074240;28;20208;-71
2022/10/06 05:26:11;;;;;;;8.60;2.23;;;12.60;99.90;;;;;;5074872;28;20490;-68
2022/10/06 05:28:37;;;;;;;10.33;2.70;;;12.60;99.90;;;;;;5075250;28;20418;-70
2022/10/06 05:31:04;;;;;;;9.53;3.13;;;12.70;99.90;;;;;;5074847;28;20399;-69
2022/10/06 05:33:33;;;;;;;7.03;2.37;;;12.70;99.90;;;;;;5074555;28;20375;-68
2022/10/06 05:36:01;;;;;;;4.93;3.07;;;12.60;99.90;;;;;;5074050;28;20391;-72
2022/10/06 05:38:28;;;;;;;8.57;2.93;;;12.70;99.90;;;;;;5074379;28;20368;-75
2022/10/06 05:41:29;;;;;;;11.23;3.20;;;12.70;99.90;;;;;;5074965;28;20824;-72
2022/10/06 05:43:55;;;;;;;14.37;3.17;;;12.70;99.90;;;;;;5089374;28;20451;-72
2022/10/06 05:46:27;;;;;;;8.73;3.03;;;12.70;99.90;;;;;;5074421;28;20765;-72
2022/10/06 05:49:11;;;;;;;6.50;2.70;;;12.80;99.90;;;;;;5074553;28;20868;-71
2022/10/06 05:51:40;;;;;;;11.00;2.43;;;12.80;99.90;;;;;;5074738;28;20410;-71
2022/10/06 05:54:06;;;;;;;9.43;3.30;;;12.80;98.00;;;;;;5073368;28;20404;-68
2022/10/06 05:56:34;;;;;;;8.07;2.77;;;12.70;93.90;;;;;;5074188;28;20919;-68
2022/10/06 05:59:00;;;;;;;7.07;2.70;;;12.70;93.50;;;;;;5074319;28;20170;-71
2022/10/06 06:01:40;;;;;;;8.67;2.93;;;12.70;93.40;;;;;;5074304;28;20421;-70
2022/10/06 06:04:08;;;;;;;16.70;3.73;;;12.80;93.20;;;;;;5073419;28;20470;-70
2022/10/06 06:06:45;;;;;;;11.03;2.93;;;12.80;93.10;;;;;;5074239;28;20416;-68
2022/10/06 06:09:14;;;;;;;16.70;4.60;;;12.80;92.30;;;;;;5074287;28;20770;-69
2022/10/06 06:11:44;;;;;;;13.53;3.60;;;12.80;92.10;;;;;;5073613;28;20359;-67
2022/10/06 06:14:15;;;;;;;7.80;2.87;;;12.80;79.30;;;;;;5073122;28;20391;-71
2022/10/06 06:16:42;;;;;;;15.37;4.80;;;12.80;90.30;;;;;;5073950;28;20391;-68
2022/10/06 06:19:10;;;;;;;9.63;4.63;;;12.80;85.00;;;;;;5073987;28;20386;-69
2022/10/06 06:21:36;;;;;;;16.13;4.53;;;12.80;77.50;;;;;;5073984;28;20401;-69
2022/10/06 06:24:02;;;;;;;19.77;6.37;;;12.80;68.60;;;;;;5072886;28;20459;-68
2022/10/06 06:26:31;;;;;;;13.13;4.70;;;12.90;53.60;;;;;;5073677;28;20899;-69
2022/10/06 06:29:01;;;;;;;8.80;3.77;;;12.90;55.60;;;;;;5073331;28;20959;-72
2022/10/06 06:31:30;;;;;;;10.53;4.77;;;12.90;56.90;;;;;;5072100;28;20416;-68
2022/10/06 06:33:57;;;;;;;17.03;4.60;;;12.90;46.50;;;;;;5073045;28;20731;-71
2022/10/06 06:36:30;;;;;;;10.43;4.43;;;12.90;42.80;;;;;;5073499;28;20442;-70
2022/10/06 06:38:57;;;;;;;10.07;3.40;;;12.90;53.90;;;;;;5073859;28;20390;-69
2022/10/06 06:41:28;;;;;;;7.70;2.93;;;12.90;39.20;;;;;;5073770;28;20391;-68
2022/10/06 06:43:55;;;;;;;8.70;4.47;;;12.90;39.90;;;;;;5072907;28;20445;-71
2022/10/06 06:46:26;;;;;;;9.90;4.10;;;12.90;50.40;;;;;;5073743;28;20891;-69
2022/10/06 06:48:55;;;;;;;12.43;3.10;;;13.00;43.00;;;;;;5073428;28;20843;-71
2022/10/06 06:51:22;;;;;;;12.23;3.00;;;13.00;41.50;;;;;;5073457;28;20375;-68
2022/10/06 06:53:49;;;;;;;13.97;3.43;;;13.00;55.50;;;;;;5072918;28;20406;-69
2022/10/06 06:56:16;;;;;;;7.73;3.13;;;13.10;36.20;;;;;;5073551;28;20383;-69
2022/10/06 06:58:46;;;;;;;15.70;2.93;;;13.10;23.70;;;;;;5073358;28;20736;-68
2022/10/06 07:01:14;;;;;;;11.23;3.70;;;13.10;14.80;;;;;;5073506;28;20895;-72
2022/10/06 07:03:41;;;;;;;8.40;3.97;;;13.20;13.80;;;;;;5072646;28;20438;-72
2022/10/06 07:06:09;;;;;;;16.90;4.40;;;13.20;6.20;;;;;;5073457;28;20395;-71
2022/10/06 07:08:37;;;;;;;4.63;2.80;;;13.30;1.00;;;;;;5072846;28;20789;-68
2022/10/06 07:11:19;;;;;;;11.23;3.27;;;13.30;5.80;;;;;;5073316;28;20457;-72
2022/10/06 07:13:46;;;;;;;7.33;3.50;;;13.40;1.00;;;;;;5072699;28;20936;-68
2022/10/06 07:27:12;;;;;;;6.10;2.60;;;13.60;1.00;;;;;;5073325;28;20381;-70
2022/10/06 07:29:37;;;;;;;9.97;2.27;;;13.60;1.00;;;;;;5073302;28;20367;-67
2022/10/06 07:32:03;;;;;;;12.67;2.10;;;13.70;1.00;;;;;;5073203;28;20162;-67
2022/10/06 07:34:29;;;;;;;8.70;2.70;;;13.80;1.00;;;;;;5071377;28;20174;-70
2022/10/06 07:36:56;;;;;;;6.20;2.20;;;13.90;1.00;;;;;;5071659;28;20413;-67
2022/10/06 07:39:22;;;;;;;6.47;2.30;;;13.90;1.00;;;;;;5073222;28;20411;-67
2022/10/06 07:41:48;;;;;;;10.77;2.37;;;13.90;1.00;;;;;;5076164;28;20887;-70
2022/10/06 07:44:13;;;;;;;9.30;2.70;;;13.90;1.00;;;;;;5075073;28;20190;-70
2022/10/06 07:46:39;;;;;;;7.47;2.33;;;13.80;1.00;;;;;;5075815;28;20186;-67
2022/10/06 07:49:05;;;;;;;9.70;2.70;;;13.90;1.00;;;;;;5076740;28;20167;-70
2022/10/06 07:51:31;;;;;;;10.50;2.90;;;13.90;1.00;;;;;;5077001;28;20188;-67
2022/10/06 07:53:56;;;;;;;13.23;2.70;;;14.00;1.00;;;;;;5076141;28;20635;-70
2022/10/06 07:56:22;;;;;;;14.83;3.80;;;14.10;1.00;;;;;;5076833;28;20482;-70
2022/10/06 07:58:49;;;;;;;10.83;3.03;;;14.20;1.00;;;;;;5076740;28;20174;-71
2022/10/06 08:01:17;;;;;;;4.50;2.83;;;14.30;1.00;;;;;;5076314;28;20190;-70
2022/10/06 08:03:47;;;;;;;7.23;2.57;;;14.40;1.00;;;;;;5075641;28;20930;-70
2022/10/06 08:06:14;;;;;;;11.33;3.73;;;14.40;1.00;;;;;;5076610;28;20387;-67
2022/10/06 08:08:42;;;;;;;8.70;2.63;;;14.50;1.00;;;;;;5076649;28;20363;-66
2022/10/06 08:11:09;;;;;;;7.80;3.40;;;14.50;1.00;;;;;;5076302;28;20463;-72
2022/10/06 08:13:36;;;;;;;7.23;3.07;;;14.50;1.00;;;;;;5076289;28;20426;-71
2022/10/06 08:16:28;;;;;;;5.53;2.70;;;14.50;1.00;;;;;;5076124;28;20397;-67
2022/10/06 08:18:56;;;;;;;6.53;2.70;;;14.50;1.00;;;;;;5076407;28;20379;-71
2022/10/06 08:21:23;;;;;;;9.47;3.00;;;14.60;1.00;;;;;;5074177;28;20458;-71
2022/10/06 08:23:50;;;;;;;9.50;2.33;;;14.70;1.00;;;;;;5075298;28;20444;-67
2022/10/06 08:26:19;;;;;;;7.57;2.40;;;14.70;1.00;;;;;;5075768;28;20482;-68
2022/10/06 08:28:47;;;;;;;9.70;1.77;;;14.80;1.00;;;;;;5076265;28;20451;-67
2022/10/06 08:31:14;;;;;;;9.70;2.30;;;14.70;1.00;;;;;;5075740;28;20394;-70
2022/10/06 08:33:44;;;;;;;6.53;2.77;;;14.80;1.00;;;;;;5064266;28;20425;-70
2022/10/06 08:36:19;;;;;;;5.60;2.10;;;14.90;1.00;;;;;;5076056;28;20417;-69
2022/10/06 08:38:49;;;;;;;7.43;2.90;;;14.90;1.00;;;;;;5075339;28;20406;-67
2022/10/06 08:41:23;;;;;;;26.00;3.23;;;14.90;1.00;;;;;;5075800;28;20375;-70
2022/10/06 08:43:56;;;;;;;5.23;2.60;;;14.90;1.00;;;;;;5074602;28;20451;-67
2022/10/06 08:46:27;;;;;;;17.70;2.77;;;14.90;1.00;;;;;;5075526;28;20438;-70
2022/10/06 08:48:52;;;;;;;9.07;3.37;;;15.00;1.00;;;;;;5075458;28;20424;-67
2022/10/06 08:51:22;;;;;;;11.97;2.53;;;15.20;1.00;;;;;;5074163;28;20435;-71
2022/10/06 08:54:07;;;;;;;21.13;3.70;;;15.20;1.00;;;;;;5060116;28;20199;-70
2022/10/06 08:56:50;;;;;;;18.17;2.87;;;15.30;1.00;;;;;;5081291;28;20422;-67
2022/10/06 08:59:16;;;;;;;6.00;2.13;;;15.20;1.00;;;;;;5075743;28;20412;-68
2022/10/06 09:01:50;;;;;;;10.03;2.33;;;15.30;1.00;;;;;;5074153;28;20402;-72
2022/10/06 09:04:27;;;;;;;7.53;2.23;;;15.20;1.00;;;;;;5074511;28;20657;-68
2022/10/06 09:07:14;;;;;;;11.00;2.07;;;15.30;1.00;;;;;;5075198;28;20440;-69
2022/10/06 09:09:56;;;;;;;11.53;3.40;;;15.30;1.00;;;;;;5074783;28;20429;-69
2022/10/06 09:12:42;;;;;;;9.50;2.70;;;15.50;1.00;;;;;;5074753;28;20428;-67
2022/10/06 09:15:14;;;;;;;6.47;2.30;;;15.50;1.00;;;;;;5072241;28;20936;-69
2022/10/06 09:17:53;;;;;;;6.17;2.73;;;15.70;1.00;;;;;;5073335;28;20925;-71
2022/10/06 09:20:31;;;;;;;10.03;2.37;;;15.70;1.00;;;;;;5073875;28;20908;-70
2022/10/06 09:22:57;;;;;;;5.47;1.90;;;15.80;1.00;;;;;;5074026;28;20395;-69
2022/10/06 09:25:27;;;;;;;9.63;3.57;;;15.60;1.00;;;;;;5073575;28;20490;-67
2022/10/06 09:27:56;;;;;;;9.53;4.83;;;15.80;1.00;;;;;;5074222;28;20399;-69
2022/10/06 09:30:22;;;;;;;10.77;2.90;;;16.10;1.00;;;;;;5073954;28;20886;-67
2022/10/06 09:33:00;;;;;;;7.10;2.27;;;16.40;1.00;;;;;;5073416;28;20905;-69
2022/10/06 09:35:28;;;;;;;8.57;3.37;;;16.80;1.00;;;;;;5070338;28;20467;-70
2022/10/06 09:38:03;;;;;;;9.03;3.80;;;17.00;1.00;;;;;;5074286;28;20392;-67
2022/10/06 09:40:47;;;;;;;12.53;4.70;;;16.90;1.00;;;;;;5073738;28;20941;-70
2022/10/06 09:43:24;;;;;;;6.13;2.30;;;16.80;1.00;;;;;;5074297;28;20805;-72
2022/10/06 09:45:51;;;;;;;7.00;2.13;;;16.80;1.00;;;;;;5071300;28;20972;-67
2022/10/06 09:48:24;;;;;;;6.37;2.77;;;16.70;1.00;;;;;;5074161;28;20462;-67
2022/10/06 09:51:06;;;;;;;8.20;2.47;;;16.60;1.00;;;;;;5074377;28;20417;-66
2022/10/06 09:53:32;;;;;;;7.60;1.93;;;16.60;1.00;;;;;;5074028;28;20396;-71
2022/10/06 09:56:03;;;;;;;7.43;2.23;;;16.40;1.00;;;;;;5071423;28;20448;-71
2022/10/06 09:58:38;;;;;;;11.90;3.27;;;16.10;1.00;;;;;;5074600;28;20174;-69
2022/10/06 10:01:07;;;;;;;4.60;2.10;;;15.90;1.00;;;;;;5072389;28;20828;-70
2022/10/06 10:03:42;;;;;;;2.83;1.90;;;15.70;1.00;;;;;;5073382;28;20453;-73
2022/10/06 10:06:20;;;;;;;13.83;3.30;;;15.50;1.00;;;;;;5073140;28;20448;-72
2022/10/06 10:08:46;;;;;;;15.03;3.00;;;15.70;1.00;;;;;;5074373;28;20375;-72
2022/10/06 10:14:19;;;;;;;11.30;2.07;;;16.70;1.00;;;;;;5071278;28;20190;-69
2022/10/06 10:16:46;;;;;;;6.17;2.67;;;17.40;1.00;;;;;;5073370;28;20419;-71
2022/10/06 10:19:31;;;;;;;9.90;2.00;;;17.70;1.00;;;;;;5073641;28;20411;-68
2022/10/06 10:21:58;;;;;;;5.83;3.13;;;17.80;1.00;;;;;;5073026;28;20460;-70
2022/10/06 10:24:54;;;;;;;7.33;2.10;;;17.80;1.00;;;;;;5071328;28;21051;-67
2022/10/06 10:27:43;;;;;;;11.80;2.20;;;17.50;1.00;;;;;;5070735;28;20428;-71
2022/10/06 10:30:13;;;;;;;8.93;2.53;;;17.10;1.00;;;;;;5071644;28;20935;-71
2022/10/06 10:33:02;;;;;;;8.43;2.37;;;16.80;1.00;;;;;;5053533;28;20409;-67
2022/10/06 10:35:51;;;;;;;12.10;3.40;;;16.40;1.00;;;;;;5049013;28;20536;-71
2022/10/06 10:38:21;;;;;;;9.43;2.80;;;16.10;1.00;;;;;;5073336;28;20412;-69
2022/10/06 10:40:50;;;;;;;10.90;3.37;;;16.00;1.00;;;;;;5073130;28;20474;-67
2022/10/06 10:43:31;;;;;;;7.60;2.40;;;15.90;1.00;;;;;;5073266;28;20393;-70
2022/10/06 10:46:04;;;;;;;13.80;3.00;;;16.20;1.00;;;;;;5071629;28;21022;-70
2022/10/06 10:48:52;;;;;;;11.93;6.23;;;16.50;1.00;;;;;;5073148;28;20454;-73
2022/10/06 10:51:32;;;;;;;7.33;2.20;;;16.70;1.00;;;;;;5070766;28;20913;-69
2022/10/06 10:54:17;;;;;;;7.00;2.30;;;16.80;1.00;;;;;;5087912;28;20435;-70
2022/10/06 10:56:47;;;;;;;9.43;2.50;;;16.70;1.00;;;;;;5072767;28;20565;-68
2022/10/06 10:59:32;;;;;;;14.23;3.13;;;16.70;1.00;;;;;;5073107;28;20925;-70
2022/10/06 11:02:18;;;;;;;15.17;3.53;;;16.80;1.00;;;;;;5072823;28;20785;-70
2022/10/06 11:04:48;;;;;;;5.33;2.30;;;16.80;1.00;;;;;;5071567;28;20468;-71
2022/10/06 11:07:52;;;;;;;7.40;2.87;;;16.90;1.00;;;;;;5072359;28;20503;-69
2022/10/06 11:10:29;;;;;;;13.53;2.40;;;17.00;1.00;;;;;;5048561;28;20452;-73
2022/10/06 11:13:37;;;;;;;13.50;3.10;;;16.70;1.00;;;;;;5033959;28;20442;-70
2022/10/06 11:16:05;;;;;;;8.10;2.27;;;16.60;1.00;;;;;;5067594;28;20967;-66
2022/10/06 11:18:49;;;;;;;4.90;2.23;;;16.60;1.00;;;;;;5072962;28;20405;-68
2022/10/06 11:21:30;;;;;;;8.43;2.10;;;16.60;1.00;;;;;;5072017;28;20439;-69
2022/10/06 11:24:01;;;;;;;11.57;3.00;;;16.80;1.00;;;;;;5071966;28;20605;-71
2022/10/06 11:27:13;;;;;;;13.90;2.77;;;17.00;1.00;;;;;;5071590;28;20801;-68
2022/10/06 11:30:06;;;;;;;5.00;1.93;;;17.10;1.00;;;;;;5060740;28;20426;-68
2022/10/06 11:32:53;;;;;;;10.13;2.20;;;17.10;1.00;;;;;;5072401;28;20416;-71
2022/10/06 11:35:25;;;;;;;5.93;1.70;;;17.00;1.00;;;;;;5070224;28;20848;-70
2022/10/06 11:38:17;;;;;;;7.60;2.23;;;17.00;1.00;;;;;;5072910;28;20409;-68
2022/10/06 11:41:10;;;;;;;5.83;1.90;;;16.90;1.00;;;;;;5072335;28;20766;-70
2022/10/06 11:43:44;;;;;;;8.27;2.73;;;17.00;1.00;;;;;;5071447;28;20459;-72
2022/10/06 11:46:32;;;;;;;10.07;2.07;;;17.00;1.00;;;;;;5072227;28;20439;-67
2022/10/06 11:49:29;;;;;;;5.90;1.70;;;17.00;1.00;;;;;;5072560;28;20378;-73
2022/10/06 11:51:54;;;;;;;4.63;2.20;;;16.70;1.00;;;;;;5067370;28;20484;-69
2022/10/06 11:54:38;;;;;;;12.60;2.53;;;17.00;1.00;;;;;;5050666;28;20424;-70
2022/10/06 11:57:34;;;;;;;9.70;2.50;;;16.80;1.00;;;;;;5069153;28;20193;-73
2022/10/06 12:00:14;;;;;;;8.43;2.27;;;16.60;1.00;;;;;;5063262;28;20823;-68
2022/10/06 12:02:42;;;;;;;7.70;2.50;;;16.50;1.00;;;;;;5070524;28;20781;-69
2022/10/06 12:05:13;;;;;;;12.07;2.17;;;16.50;1.00;;;;;;5070931;28;20460;-72
2022/10/06 12:08:02;;;;;;;7.30;2.47;;;16.60;1.00;;;;;;5071376;28;20461;-68
2022/10/06 12:10:28;;;;;;;4.57;1.67;;;16.80;1.00;;;;;;5060263;28;20456;-68
2022/10/06 12:13:15;;;;;;;12.17;2.30;;;16.70;1.00;;;;;;5052355;28;20401;-69
2022/10/06 12:16:02;;;;;;;9.50;2.73;;;16.70;1.00;;;;;;5053433;28;20191;-70
2022/10/06 12:19:00;;;;;;;6.00;2.17;;;17.00;1.00;;;;;;5052411;28;20727;-68
2022/10/06 12:21:44;;;;;;;3.50;2.10;;;17.00;1.00;;;;;;5064190;28;20436;-68
2022/10/06 12:24:47;;;;;;;10.70;2.90;;;17.50;1.00;;;;;;5070479;28;20531;-69
2022/10/06 12:27:36;;;;;;;5.20;1.73;;;17.60;1.00;;;;;;5072678;28;20420;-72
2022/10/06 12:30:23;;;;;;;4.70;2.07;;;17.80;1.00;;;;;;5075793;28;20749;-70
2022/10/06 12:32:54;;;;;;;3.80;1.83;;;17.70;1.00;;;;;;5055783;28;20760;-71
2022/10/06 12:35:38;;;;;;;5.33;1.73;;;17.40;1.00;;;;;;5055600;28;20433;-72
2022/10/06 12:38:30;;;;;;;5.07;1.97;;;17.20;1.00;;;;;;5075708;28;20413;-70
2022/10/06 12:40:56;;;;;;;6.37;2.03;;;17.20;1.00;;;;;;5064245;28;20420;-71
2022/10/06 12:43:22;;;;;;;11.43;2.33;;;17.80;1.00;;;;;;5075039;28;20396;-69
2022/10/06 12:46:06;;;;;;;4.53;1.33;;;17.30;1.00;;;;;;5073571;28;20779;-70
2022/10/06 12:48:41;;;;;;;6.13;2.13;;;17.30;1.00;;;;;;5075528;28;20197;-70
2022/10/06 12:51:17;;;;;;;6.27;1.73;;;17.70;1.00;;;;;;5071129;28;20449;-72
2022/10/06 12:53:51;;;;;;;4.63;1.70;;;18.80;1.00;;;;;;5056092;28;20916;-73
2022/10/06 12:56:32;;;;;;;5.73;2.10;;;19.40;1.00;;;;;;5075289;28;20419;-72
2022/10/06 12:59:22;;;;;;;4.13;1.90;;;20.30;1.00;;;;;;5074825;28;20503;-69
2022/10/06 13:01:57;;;;;;;7.87;2.57;;;20.10;1.00;;;;;;5074711;28;20915;-70
2022/10/06 13:04:53;;;;;;;8.20;1.70;;;20.40;1.00;;;;;;5069364;28;20979;-71
2022/10/06 13:07:26;;;;;;;2.37;1.47;;;20.90;1.00;;;;;;5046398;28;20425;-71
2022/10/06 13:10:09;;;;;;;6.83;1.50;;;21.10;1.00;;;;;;5064269;28;20408;-72
2022/10/06 13:12:46;;;;;;;4.23;1.60;;;20.80;1.00;;;;;;5090748;28;20454;-70
2022/10/06 13:15:19;;;;;;;6.40;2.07;;;21.30;1.00;;;;;;5074151;28;20440;-69
2022/10/06 13:17:47;;;;;;;4.23;1.60;;;20.50;1.00;;;;;;5074230;28;20436;-67
2022/10/06 13:20:59;;;;;;;9.93;1.80;;;19.80;1.00;;;;;;5074186;28;20435;-69
2022/10/06 13:23:32;;;;;;;6.30;2.10;;;18.90;1.00;;;;;;5032411;28;20437;-71
2022/10/06 13:26:06;;;;;;;7.13;2.13;;;18.00;1.00;;;;;;5012107;28;20446;-68